Etusivu
METAR-TAF:

METAR-TAF

Lentoasemat :

Sørkjosen, Norja

Leveyspiiri: 69-47N, Pituuspiiri: 020-58E, korkeus merenpinnasta: 0 m

Tämänhetkinen sää

Tämä raportti tehtiin 1 tunti ja 41 minuuttia sitten, kello 13.20 UTC
Tuuli 20 kn lännestä/luoteesta
Lämpötila -1°C
Kosteus 86%
Ilmanpaine 977 hPa
Näkyvyys: 4000 m
heikkoa lumisadetta

METAR: ENSR 131320Z 25014KT 4000 -SN VV030 M01/M03 Q0977 WIND 1119FT 30020KT

Aika: 16:01 (15:01 UTC)


TAF: puuttuu

Säähavainnot ja -ennusteet yli 4000 lentoasemalta (METAR- ja TAF-raportit).

Käytössä olevat sääasemat on merkitty karttaan keltaisilla ja punaisilla pisteillä.

Aseta hiiri pisteen päälle nähdäksesi sääaseman nimen.

Klikkaa sitten nähdäksesi säähavainnot ja -ennusteet.

Kartan vaihtaminen: klikkaa mustalla rastilla varustettuja vihreitä pisteitä, niin voit zoomata sisään; viivalla varustettua vihreää pistettä, niin voit zoomata ulos tai vihreitä nuolia, niin pääset viereisille kartoille.


METAR-TAF: